createdAt,value
2019-05-09T00:00:48.335Z,84.5825
2019-05-09T00:01:51.292Z,84.7900
2019-05-09T00:02:55.278Z,84.8877
2019-05-09T00:03:58.334Z,84.8877
2019-05-09T00:05:03.420Z,84.7900
2019-05-09T00:06:07.315Z,84.4788
2019-05-09T00:07:10.280Z,84.1675
2019-05-09T00:08:14.330Z,83.8623
2019-05-09T00:09:17.272Z,83.6548
2019-05-09T00:10:35.209Z,83.5510
2019-05-09T00:11:29.281Z,83.4473
2019-05-09T00:12:33.523Z,83.1421
2019-05-09T00:13:37.303Z,82.9346
2019-05-09T00:14:40.284Z,82.7271
2019-05-09T00:15:44.360Z,82.5256
2019-05-09T00:16:47.302Z,82.4219
2019-05-09T00:17:53.164Z,82.2510
2019-05-09T00:18:55.290Z,82.1533
2019-05-09T00:19:58.313Z,82.1533
2019-05-09T00:21:04.155Z,82.1533
2019-05-09T00:22:07.270Z,81.9458
2019-05-09T00:23:13.390Z,81.8420
2019-05-09T00:24:17.343Z,81.7383
2019-05-09T00:25:23.506Z,81.6345
2019-05-09T00:26:27.316Z,81.6345
2019-05-09T00:27:30.268Z,81.7383
2019-05-09T00:28:36.031Z,81.7383
2019-05-09T00:29:40.336Z,81.6345
2019-05-09T00:30:44.302Z,81.5308
2019-05-09T00:31:47.309Z,81.5308
2019-05-09T00:32:53.355Z,81.8420
2019-05-09T00:33:56.290Z,81.8420
2019-05-09T00:35:00.316Z,81.8787
2019-05-09T00:36:04.505Z,81.8420
2019-05-09T00:37:10.315Z,82.0862
2019-05-09T00:38:14.325Z,82.1899
2019-05-09T00:39:17.293Z,82.2510
2019-05-09T00:40:23.713Z,82.2510
2019-05-09T00:41:27.346Z,82.2510
2019-05-09T00:42:30.266Z,82.3547
2019-05-09T00:43:34.358Z,82.3547
2019-05-09T00:44:37.284Z,82.2510
2019-05-09T00:45:41.332Z,82.2510
2019-05-09T00:46:44.342Z,82.2510
2019-05-09T00:47:48.336Z,82.5623
2019-05-09T00:48:53.235Z,82.6660
2019-05-09T00:49:56.308Z,82.7698
2019-05-09T00:51:00.308Z,82.8735
2019-05-09T00:52:03.608Z,83.1787
2019-05-09T00:53:07.374Z,82.9712
2019-05-09T00:54:09.262Z,82.8735
2019-05-09T00:55:13.353Z,82.5623
2019-05-09T00:56:16.323Z,82.5989
2019-05-09T00:57:19.302Z,82.4951
2019-05-09T00:58:24.170Z,82.2937
2019-05-09T00:59:27.320Z,82.1899
2019-05-09T01:00:33.238Z,82.0862
2019-05-09T01:01:36.343Z,81.8787
2019-05-09T01:02:40.313Z,81.6711
2019-05-09T01:03:43.354Z,81.4697
2019-05-09T01:04:46.344Z,81.3660
2019-05-09T01:05:50.307Z,81.2622
2019-05-09T01:06:53.965Z,81.2622
2019-05-09T01:07:57.298Z,81.1584
2019-05-09T01:09:00.310Z,81.1584
2019-05-09T01:10:04.457Z,81.0547
2019-05-09T01:11:12.141Z,80.8472
2019-05-09T01:12:15.338Z,80.5420
2019-05-09T01:13:19.287Z,80.3345
2019-05-09T01:14:23.452Z,80.3345
2019-05-09T01:15:27.291Z,80.2307
2019-05-09T01:16:30.314Z,80.4382
2019-05-09T01:17:34.310Z,80.4382
2019-05-09T01:18:37.265Z,80.3345
2019-05-09T01:19:40.328Z,80.1270
2019-05-09T01:20:44.303Z,80.1270
2019-05-09T01:21:47.348Z,80.1270
2019-05-09T01:22:51.329Z,80.0232
2019-05-09T01:23:54.372Z,80.0232
2019-05-09T01:24:58.272Z,80.1636
2019-05-09T01:26:03.612Z,80.2673
2019-05-09T01:27:07.295Z,80.1636
2019-05-09T01:28:11.346Z,80.0598
2019-05-09T01:29:14.363Z,80.3711
2019-05-09T01:30:18.307Z,80.4749
2019-05-09T01:31:20.284Z,80.7861
2019-05-09T01:32:24.287Z,81.0913
2019-05-09T01:33:27.336Z,81.1951
2019-05-09T01:34:30.273Z,81.2988
2019-05-09T01:35:34.312Z,81.5063
2019-05-09T01:36:37.288Z,81.8115
2019-05-09T01:37:43.313Z,82.0862
2019-05-09T01:38:46.340Z,82.3975
2019-05-09T01:39:49.299Z,82.8064
2019-05-09T01:40:53.299Z,83.0139
2019-05-09T01:41:56.320Z,83.3191
2019-05-09T01:43:00.278Z,83.4229
2019-05-09T01:44:04.130Z,83.4229
2019-05-09T01:45:07.291Z,83.6304
2019-05-09T01:46:10.272Z,83.8379
2019-05-09T01:47:14.303Z,83.9417
2019-05-09T01:48:17.279Z,83.9417
2019-05-09T01:49:20.342Z,83.7341
2019-05-09T01:50:23.421Z,84.2468
2019-05-09T01:51:26.333Z,84.8694
2019-05-09T01:52:29.294Z,85.0708
2019-05-09T01:53:33.427Z,84.7656
2019-05-09T01:54:37.301Z,84.7229
2019-05-09T01:55:40.295Z,85.1379
2019-05-09T01:56:43.294Z,85.2417
2019-05-09T01:57:47.972Z,85.7544
2019-05-09T01:58:53.602Z,85.8582
2019-05-09T01:59:57.314Z,85.6506
2019-05-09T02:01:00.310Z,85.8582
2019-05-09T02:02:08.736Z,85.5469
2019-05-09T02:03:13.951Z,85.2417
2019-05-09T02:04:16.300Z,84.8267
2019-05-09T02:05:20.309Z,84.4177
2019-05-09T02:06:24.350Z,84.2102
2019-05-09T02:07:28.314Z,84.5154
2019-05-09T02:08:31.300Z,84.4177
2019-05-09T02:09:35.308Z,84.5154
2019-05-09T02:10:38.279Z,84.4177
2019-05-09T02:11:43.306Z,84.5154
2019-05-09T02:12:49.326Z,84.5154
2019-05-09T02:13:53.489Z,84.5154
2019-05-09T02:14:57.309Z,84.5154
2019-05-09T02:16:00.267Z,84.7229
2019-05-09T02:17:03.341Z,84.7229
2019-05-09T02:18:06.287Z,84.7229
2019-05-09T02:19:09.309Z,84.6191
2019-05-09T02:20:13.731Z,84.4177
2019-05-09T02:21:17.272Z,84.3140
2019-05-09T02:22:23.112Z,84.2102
2019-05-09T02:23:27.325Z,84.3140
2019-05-09T02:24:33.702Z,84.2102
2019-05-09T02:25:37.273Z,84.1064
2019-05-09T02:26:40.318Z,84.2102
2019-05-09T02:27:44.271Z,84.2102
2019-05-09T02:28:47.278Z,84.2712
2019-05-09T02:29:51.373Z,84.2712
2019-05-09T02:30:55.073Z,84.3750
2019-05-09T02:31:58.306Z,84.4788
2019-05-09T02:33:01.280Z,84.6863
2019-05-09T02:34:04.872Z,84.7900
2019-05-09T02:35:08.307Z,84.9915
2019-05-09T02:36:11.341Z,85.1990
2019-05-09T02:37:18.559Z,85.3027
2019-05-09T02:38:22.306Z,85.3027
2019-05-09T02:39:29.267Z,85.1990
2019-05-09T02:40:32.327Z,85.1990
2019-05-09T02:41:35.310Z,84.9915
2019-05-09T02:42:39.953Z,84.8877
2019-05-09T02:43:43.307Z,84.6863
2019-05-09T02:44:49.216Z,84.4788
2019-05-09T02:45:52.916Z,84.3750
2019-05-09T02:46:58.834Z,84.1675
2019-05-09T02:48:02.315Z,83.9661
2019-05-09T02:49:08.523Z,83.9661
2019-05-09T02:50:12.317Z,84.0698
2019-05-09T02:51:18.192Z,84.1064
2019-05-09T02:52:22.302Z,84.1064
2019-05-09T02:53:28.696Z,84.0698
2019-05-09T02:54:32.309Z,83.9661
2019-05-09T02:55:38.535Z,83.8623
2019-05-09T02:56:42.338Z,83.4473
2019-05-09T02:57:48.795Z,83.2458
2019-05-09T02:58:52.315Z,83.0383
2019-05-09T02:59:58.981Z,82.7271
2019-05-09T03:01:01.293Z,82.5256
2019-05-09T03:02:05.348Z,82.3547
2019-05-09T03:03:09.219Z,82.1533
2019-05-09T03:04:13.312Z,81.9458
2019-05-09T03:05:19.545Z,81.9458
2019-05-09T03:06:23.330Z,82.1533
2019-05-09T03:07:28.849Z,82.3547
2019-05-09T03:08:32.328Z,82.5623
2019-05-09T03:09:38.786Z,82.8735
2019-05-09T03:10:42.274Z,83.0750
2019-05-09T03:11:48.280Z,83.2458
2019-05-09T03:12:52.319Z,83.4473
2019-05-09T03:13:58.339Z,83.5510
2019-05-09T03:15:02.288Z,83.6548
2019-05-09T03:16:08.317Z,83.7585
2019-05-09T03:17:12.299Z,83.8623
2019-05-09T03:18:17.704Z,83.9661
2019-05-09T03:19:21.280Z,84.0698
2019-05-09T03:20:28.912Z,84.1675
2019-05-09T03:21:32.276Z,84.2712
2019-05-09T03:22:39.231Z,84.2712
2019-05-09T03:23:43.319Z,84.2712
2019-05-09T03:24:48.611Z,84.1309
2019-05-09T03:25:52.311Z,84.1309
2019-05-09T03:26:55.292Z,83.9233
2019-05-09T03:27:59.330Z,83.7219
2019-05-09T03:29:02.283Z,83.4473
2019-05-09T03:30:11.104Z,83.1421
2019-05-09T03:31:14.321Z,82.8308
2019-05-09T03:32:19.490Z,82.6294
2019-05-09T03:33:23.354Z,82.4219
2019-05-09T03:34:29.778Z,82.2144
2019-05-09T03:35:32.301Z,82.0068
2019-05-09T03:36:34.445Z,81.8054
2019-05-09T03:37:38.355Z,81.7017
2019-05-09T03:38:41.276Z,81.6345
2019-05-09T03:39:44.310Z,81.4270
2019-05-09T03:40:47.783Z,81.3293
2019-05-09T03:41:50.316Z,81.2256
2019-05-09T03:42:54.314Z,81.1218
2019-05-09T03:43:58.518Z,81.1218
2019-05-09T03:45:02.307Z,81.0181
2019-05-09T03:46:07.664Z,81.0547
2019-05-09T03:47:11.271Z,80.9509
2019-05-09T03:48:14.292Z,80.9509
2019-05-09T03:49:17.987Z,80.9509
2019-05-09T03:50:21.296Z,80.9509
2019-05-09T03:51:24.332Z,81.0547
2019-05-09T03:52:28.268Z,81.0547
2019-05-09T03:53:31.286Z,80.9509
2019-05-09T03:54:37.445Z,80.7495
2019-05-09T03:55:41.270Z,80.6458
2019-05-09T03:56:44.308Z,80.4382
2019-05-09T03:57:48.296Z,80.5420
2019-05-09T03:58:53.378Z,80.4749
2019-05-09T03:59:57.356Z,80.3711
2019-05-09T04:01:00.308Z,80.2673
2019-05-09T04:02:04.288Z,79.9622
2019-05-09T04:03:08.164Z,79.8584
2019-05-09T04:04:11.318Z,79.7546
2019-05-09T04:05:15.307Z,79.6509
2019-05-09T04:06:18.598Z,79.6509
2019-05-09T04:07:22.285Z,79.6509
2019-05-09T04:08:25.336Z,79.6509
2019-05-09T04:09:29.275Z,79.5471
2019-05-09T04:10:32.281Z,79.5471
2019-05-09T04:11:35.287Z,79.4434
2019-05-09T04:12:52.763Z,79.3396
2019-05-09T04:13:47.679Z,79.4434
2019-05-09T04:14:51.279Z,79.6509
2019-05-09T04:15:54.306Z,80.0598
2019-05-09T04:16:58.268Z,80.4749
2019-05-09T04:18:01.295Z,80.6824
2019-05-09T04:19:04.301Z,80.8899
2019-05-09T04:20:08.318Z,81.0913
2019-05-09T04:21:11.295Z,81.1951
2019-05-09T04:22:15.297Z,81.6101
2019-05-09T04:23:18.748Z,81.5063
2019-05-09T04:24:22.324Z,81.4026
2019-05-09T04:25:27.234Z,81.2988
2019-05-09T04:26:30.275Z,81.5063
2019-05-09T04:27:34.303Z,81.5063
2019-05-09T04:28:39.687Z,81.5063
2019-05-09T04:29:43.346Z,81.5063
2019-05-09T04:30:47.764Z,81.6101
2019-05-09T04:31:51.277Z,81.7139
2019-05-09T04:32:54.303Z,81.9153
2019-05-09T04:33:57.505Z,82.2266
2019-05-09T04:35:01.279Z,82.1228
2019-05-09T04:36:04.304Z,82.0190
2019-05-09T04:37:11.625Z,82.2266
2019-05-09T04:38:15.311Z,82.5378
2019-05-09T04:39:23.620Z,82.6416
2019-05-09T04:40:31.849Z,82.6416
2019-05-09T04:41:35.295Z,83.1543
2019-05-09T04:42:43.161Z,83.3618
2019-05-09T04:43:48.709Z,83.3618
2019-05-09T04:44:57.248Z,83.6670
2019-05-09T04:46:00.336Z,83.8745
2019-05-09T04:47:04.275Z,84.1858
2019-05-09T04:48:07.752Z,84.1858
2019-05-09T04:49:11.272Z,83.8745
2019-05-09T04:50:19.917Z,83.9783
2019-05-09T04:51:23.318Z,84.1858
2019-05-09T04:52:27.914Z,84.1858
2019-05-09T04:53:31.346Z,84.1858
2019-05-09T04:54:35.295Z,83.6670
2019-05-09T04:55:38.317Z,83.8745
2019-05-09T04:56:41.287Z,83.7708
2019-05-09T04:57:45.305Z,83.6670
2019-05-09T04:58:48.358Z,83.4656
2019-05-09T04:59:52.300Z,83.3618
2019-05-09T05:00:57.229Z,83.2581
2019-05-09T05:02:01.315Z,83.5632
2019-05-09T05:03:04.316Z,83.3618
2019-05-09T05:04:07.804Z,83.3618
2019-05-09T05:05:11.275Z,83.2581
2019-05-09T05:06:14.291Z,83.0505
2019-05-09T05:07:18.048Z,82.8064
2019-05-09T05:08:21.285Z,82.7026
2019-05-09T05:09:27.575Z,82.5989
2019-05-09T05:10:31.281Z,82.8064
2019-05-09T05:11:34.338Z,82.8064
2019-05-09T05:12:38.315Z,82.8064
2019-05-09T05:13:41.280Z,82.8064
2019-05-09T05:14:47.454Z,82.8064
2019-05-09T05:15:51.317Z,82.8064
2019-05-09T05:17:04.353Z,83.0139
2019-05-09T05:18:03.271Z,83.0139
2019-05-09T05:19:07.514Z,83.0139
2019-05-09T05:20:11.315Z,83.0139
2019-05-09T05:21:14.316Z,83.1177
2019-05-09T05:22:18.422Z,83.3191
2019-05-09T05:23:21.323Z,83.2214
2019-05-09T05:24:27.647Z,83.1177
2019-05-09T05:25:31.325Z,83.1177
2019-05-09T05:26:34.288Z,83.1787
2019-05-09T05:27:38.380Z,83.1787
2019-05-09T05:28:41.295Z,83.0750
2019-05-09T05:29:47.495Z,82.9712
2019-05-09T05:30:50.327Z,82.8735
2019-05-09T05:31:54.290Z,82.7698
2019-05-09T05:32:58.032Z,82.7698
2019-05-09T05:34:00.325Z,82.6660
2019-05-09T05:35:04.341Z,82.6660
2019-05-09T05:36:07.922Z,82.7698
2019-05-09T05:37:11.318Z,82.8735
2019-05-09T05:38:14.319Z,82.9712
2019-05-09T05:39:18.310Z,82.9712
2019-05-09T05:40:21.303Z,83.1787
2019-05-09T05:41:24.299Z,83.2825
2019-05-09T05:42:28.509Z,83.4473
2019-05-09T05:43:41.512Z,83.5510
2019-05-09T05:44:40.320Z,83.9661
2019-05-09T05:45:43.284Z,84.3750
2019-05-09T05:46:50.531Z,84.7900
2019-05-09T05:47:54.287Z,85.1624
2019-05-09T05:48:57.872Z,85.3638
2019-05-09T05:50:01.320Z,85.7361
2019-05-09T05:51:04.303Z,86.0474
2019-05-09T05:52:08.331Z,86.4563
2019-05-09T05:53:11.301Z,86.4563
2019-05-09T05:54:15.331Z,87.8540
2019-05-09T05:55:18.425Z,88.7817
2019-05-09T05:56:21.308Z,88.7817
2019-05-09T05:57:27.365Z,89.0442
2019-05-09T05:58:31.293Z,89.0442
2019-05-09T05:59:39.847Z,88.8428
2019-05-09T06:00:43.325Z,88.6353
2019-05-09T06:01:47.806Z,89.4165
2019-05-09T06:02:51.333Z,89.4165
2019-05-09T06:03:54.295Z,89.0076
2019-05-09T06:04:58.316Z,88.6963
2019-05-09T06:06:01.287Z,88.4949
2019-05-09T06:07:07.730Z,89.1724
2019-05-09T06:08:11.361Z,89.4775
2019-05-09T06:09:15.306Z,89.8865
2019-05-09T06:10:18.809Z,90.3992
2019-05-09T06:11:22.318Z,90.3015
2019-05-09T06:12:27.620Z,90.0940
2019-05-09T06:13:31.306Z,90.3015
2019-05-09T06:14:37.599Z,90.5029
2019-05-09T06:15:41.289Z,90.7104
2019-05-09T06:16:45.277Z,90.8142
2019-05-09T06:17:48.605Z,90.7715
2019-05-09T06:18:52.278Z,90.6677
2019-05-09T06:19:58.675Z,90.4602
2019-05-09T06:21:02.289Z,90.3564
2019-05-09T06:22:08.172Z,90.6250
2019-05-09T06:23:12.358Z,90.5212
2019-05-09T06:24:17.684Z,90.9302
2019-05-09T06:25:21.428Z,91.0339
2019-05-09T06:26:25.314Z,91.1987
2019-05-09T06:27:29.301Z,91.1987
2019-05-09T06:28:32.329Z,91.0950
2019-05-09T06:29:38.743Z,90.7898
2019-05-09T06:30:42.291Z,90.6860
2019-05-09T06:31:48.274Z,90.5823
2019-05-09T06:32:52.312Z,90.4785
2019-05-09T06:33:57.606Z,90.3381
2019-05-09T06:35:01.300Z,90.3381
2019-05-09T06:36:03.371Z,90.6433
2019-05-09T06:37:09.070Z,90.6433
2019-05-09T06:38:12.334Z,90.3381
2019-05-09T06:39:17.859Z,90.3381
2019-05-09T06:40:21.663Z,90.4358
2019-05-09T06:41:25.322Z,90.4358
2019-05-09T06:42:29.285Z,90.3381
2019-05-09T06:43:32.310Z,90.2344
2019-05-09T06:44:37.421Z,90.1306
2019-05-09T06:45:41.783Z,90.1306
2019-05-09T06:46:45.307Z,90.0269
2019-05-09T06:47:48.746Z,90.0269
2019-05-09T06:48:52.350Z,89.9231
2019-05-09T06:49:57.450Z,89.8254
2019-05-09T06:51:01.322Z,89.7217
2019-05-09T06:52:05.290Z,89.6179
2019-05-09T06:53:08.323Z,89.7217
2019-05-09T06:54:12.280Z,89.4165
2019-05-09T06:55:17.201Z,89.4165
2019-05-09T06:56:21.331Z,89.3127
2019-05-09T06:57:27.885Z,88.8000
2019-05-09T06:58:31.306Z,88.4949
2019-05-09T06:59:35.340Z,88.8000
2019-05-09T07:00:38.341Z,89.1052
2019-05-09T07:01:42.321Z,89.2090
2019-05-09T07:02:47.715Z,89.2090
2019-05-09T07:03:51.320Z,89.4165
2019-05-09T07:04:55.338Z,89.3738
2019-05-09T07:05:58.299Z,89.2700
2019-05-09T07:07:02.312Z,88.6536
2019-05-09T07:08:05.288Z,88.6536
2019-05-09T07:09:09.327Z,88.7573
2019-05-09T07:10:12.351Z,89.1235
2019-05-09T07:11:15.347Z,88.7146
2019-05-09T07:12:19.325Z,88.3057
2019-05-09T07:13:22.305Z,88.1042
2019-05-09T07:14:31.716Z,87.4878
2019-05-09T07:15:34.299Z,88.2019
2019-05-09T07:16:38.319Z,88.3057
2019-05-09T07:17:41.270Z,88.3057
2019-05-09T07:18:44.311Z,87.6526
2019-05-09T07:19:49.069Z,87.9578
2019-05-09T07:20:52.315Z,86.5662
2019-05-09T07:21:57.941Z,87.0361
2019-05-09T07:23:01.278Z,86.9385
2019-05-09T07:24:05.334Z,87.0361
2019-05-09T07:25:11.009Z,84.8267
2019-05-09T07:26:17.496Z,85.6445
2019-05-09T07:27:21.284Z,86.5662
2019-05-09T07:28:24.325Z,86.6699
2019-05-09T07:29:28.531Z,86.1572
2019-05-09T07:30:32.307Z,86.5662
2019-05-09T07:31:37.955Z,85.4797
2019-05-09T07:32:41.311Z,86.2000
2019-05-09T07:33:44.325Z,86.3037
2019-05-09T07:34:48.330Z,85.2783
2019-05-09T07:35:51.331Z,85.5835
2019-05-09T07:36:57.932Z,85.7910
2019-05-09T07:38:01.301Z,85.8887
2019-05-09T07:39:05.281Z,85.4187
2019-05-09T07:40:08.590Z,85.6262
2019-05-09T07:41:12.267Z,86.0352
2019-05-09T07:42:17.865Z,86.1389
2019-05-09T07:43:21.294Z,86.0352
2019-05-09T07:44:25.330Z,86.0352
2019-05-09T07:45:28.328Z,86.2000
2019-05-09T07:46:32.289Z,85.2783
2019-05-09T07:47:35.334Z,84.1919
2019-05-09T07:48:38.340Z,85.0098
2019-05-09T07:49:42.304Z,85.1135
2019-05-09T07:50:45.284Z,83.6792
2019-05-09T07:51:49.307Z,83.1665
2019-05-09T07:52:52.316Z,83.9844
2019-05-09T07:53:58.706Z,83.2031
2019-05-09T07:55:02.295Z,82.1777
2019-05-09T07:56:07.715Z,82.6904
2019-05-09T07:57:11.311Z,82.6904
2019-05-09T07:58:14.531Z,83.0994
2019-05-09T07:59:18.307Z,82.9346
2019-05-09T08:00:21.335Z,83.5510
2019-05-09T08:01:27.853Z,84.0637
2019-05-09T08:02:31.312Z,84.3689
2019-05-09T08:03:34.284Z,84.2712
2019-05-09T08:04:38.593Z,84.2712
2019-05-09T08:05:42.284Z,84.0637
2019-05-09T08:06:48.620Z,83.9600
2019-05-09T08:07:52.315Z,83.6548
2019-05-09T08:08:58.136Z,82.9346
2019-05-09T08:10:02.386Z,83.2458
2019-05-09T08:11:05.311Z,82.3181
2019-05-09T08:12:09.363Z,82.6294
2019-05-09T08:13:12.329Z,83.0383
2019-05-09T08:14:17.596Z,83.4473
2019-05-09T08:15:21.330Z,83.4473
2019-05-09T08:16:27.277Z,83.5144
2019-05-09T08:17:31.319Z,83.8196
2019-05-09T08:18:34.329Z,84.1248
2019-05-09T08:19:38.325Z,84.4360
2019-05-09T08:20:41.298Z,84.1919
2019-05-09T08:21:45.333Z,84.1919
2019-05-09T08:22:57.282Z,83.9844
2019-05-09T08:23:58.014Z,83.7830
2019-05-09T08:25:01.294Z,83.8806
2019-05-09T08:26:04.688Z,83.9478
2019-05-09T08:27:08.657Z,83.6365
2019-05-09T08:28:12.324Z,83.5388
2019-05-09T08:29:17.849Z,83.3313
2019-05-09T08:30:23.321Z,83.8440
2019-05-09T08:31:28.052Z,83.7402
2019-05-09T08:32:31.314Z,83.4351
2019-05-09T08:33:34.341Z,82.2693
2019-05-09T08:34:38.349Z,82.6782
2019-05-09T08:35:41.321Z,83.1909
2019-05-09T08:36:47.605Z,83.1909
2019-05-09T08:37:51.308Z,83.3923
2019-05-09T08:38:58.357Z,83.7646
2019-05-09T08:40:02.318Z,83.6609
2019-05-09T08:41:05.327Z,82.6416
2019-05-09T08:42:09.300Z,83.2520
2019-05-09T08:43:12.383Z,82.8430
2019-05-09T08:44:18.412Z,81.9885
2019-05-09T08:45:27.832Z,82.8064
2019-05-09T08:46:30.304Z,82.8064
2019-05-09T08:47:33.333Z,82.7026
2019-05-09T08:48:37.635Z,82.4585
2019-05-09T08:49:41.327Z,82.7698
2019-05-09T08:50:44.285Z,81.8481
2019-05-09T08:52:06.725Z,80.8899
2019-05-09T08:52:57.595Z,78.4424
2019-05-09T08:54:01.357Z,78.2349
2019-05-09T08:55:04.328Z,78.5400
2019-05-09T08:56:09.049Z,79.2542
2019-05-09T08:57:14.294Z,80.4810
2019-05-09T08:58:19.633Z,80.2795
2019-05-09T08:59:23.339Z,77.8259
2019-05-09T09:00:28.142Z,78.5400
2019-05-09T09:01:50.002Z,78.3386
2019-05-09T09:02:40.336Z,77.7893
2019-05-09T09:03:43.305Z,78.7109
2019-05-09T09:04:48.848Z,78.8086
2019-05-09T09:05:52.309Z,79.2175
2019-05-09T09:06:57.652Z,77.3804
2019-05-09T09:08:01.340Z,76.1597
2019-05-09T09:09:05.792Z,76.6663
2019-05-09T09:10:11.299Z,75.9521
2019-05-09T09:11:14.318Z,77.0752
2019-05-09T09:12:29.423Z,78.3020
2019-05-09T09:13:28.230Z,79.0161
2019-05-09T09:14:32.281Z,77.1423
2019-05-09T09:16:02.263Z,77.7527
2019-05-09T09:16:43.293Z,77.2095
2019-05-09T09:17:48.872Z,76.0498
2019-05-09T09:18:52.291Z,76.7639
2019-05-09T09:19:58.221Z,76.1169
2019-05-09T09:21:02.342Z,77.2034
2019-05-09T09:22:08.601Z,76.1841
2019-05-09T09:23:14.364Z,75.9460
2019-05-09T09:24:18.318Z,76.1475
2019-05-09T09:25:21.315Z,75.9460
2019-05-09T09:26:24.349Z,74.3164
2019-05-09T09:27:28.319Z,73.9075
2019-05-09T09:28:31.324Z,75.7385
2019-05-09T09:29:34.323Z,72.4121
2019-05-09T09:30:38.575Z,74.8596
2019-05-09T09:31:43.313Z,76.2817
2019-05-09T09:32:47.914Z,76.3855
2019-05-09T09:33:51.299Z,74.4873
2019-05-09T09:34:55.343Z,75.8118
2019-05-09T09:35:58.340Z,74.4873
2019-05-09T09:37:05.351Z,74.1821
2019-05-09T09:38:10.304Z,75.7080
2019-05-09T09:39:14.355Z,73.8770
2019-05-09T09:40:17.797Z,72.6501
2019-05-09T09:41:21.351Z,72.7539
2019-05-09T09:42:28.002Z,74.8962
2019-05-09T09:43:31.280Z,76.0132
2019-05-09T09:44:35.357Z,74.9939
2019-05-09T09:45:38.312Z,72.7539
2019-05-09T09:46:42.336Z,72.7539
2019-05-09T09:47:47.990Z,72.4121
2019-05-09T09:48:51.315Z,73.1262
2019-05-09T09:49:57.848Z,71.1243
2019-05-09T09:51:02.308Z,71.4355
2019-05-09T09:52:08.572Z,71.6003
2019-05-09T09:53:12.334Z,71.0632
2019-05-09T09:54:18.643Z,66.4001
2019-05-09T09:55:22.381Z,68.3594
2019-05-09T09:56:25.299Z,70.7581
2019-05-09T09:57:29.297Z,65.2283
2019-05-09T09:58:32.309Z,64.5630
2019-05-09T09:59:38.570Z,63.7573
2019-05-09T10:00:44.349Z,64.7949
2019-05-09T10:01:48.304Z,61.1267
2019-05-09T10:02:51.374Z,60.0891
2019-05-09T10:03:54.308Z,60.9680
2019-05-09T10:04:58.328Z,59.9854
2019-05-09T10:06:01.316Z,59.4849
2019-05-09T10:07:05.303Z,60.7666
2019-05-09T10:08:13.284Z,63.7634
2019-05-09T10:09:17.492Z,63.3606
2019-05-09T10:10:21.315Z,61.4441
2019-05-09T10:11:24.308Z,58.1177
2019-05-09T10:12:28.976Z,59.3262
2019-05-09T10:13:32.301Z,61.1389
2019-05-09T10:14:36.317Z,58.8928
2019-05-09T10:15:39.271Z,59.6741
2019-05-09T10:16:43.371Z,64.7827
2019-05-09T10:17:47.717Z,65.5273
2019-05-09T10:18:51.298Z,60.5652
2019-05-09T10:19:55.304Z,54.8035
2019-05-09T10:20:58.675Z,52.1912
2019-05-09T10:22:02.357Z,56.1646
2019-05-09T10:23:15.211Z,55.5603
2019-05-09T10:24:13.290Z,55.0842
2019-05-09T10:25:18.261Z,57.3242
2019-05-09T10:26:22.317Z,52.7161
2019-05-09T10:27:28.364Z,56.4758
2019-05-09T10:28:32.280Z,57.7087
2019-05-09T10:29:38.530Z,58.3191
2019-05-09T10:30:42.292Z,53.7231
2019-05-09T10:31:48.651Z,57.7942
2019-05-09T10:32:52.303Z,57.6172
2019-05-09T10:33:55.338Z,57.3425
2019-05-09T10:34:59.294Z,58.9600
2019-05-09T10:36:04.777Z,60.0464
2019-05-09T10:37:09.405Z,58.3008
2019-05-09T10:38:12.309Z,58.6487
2019-05-09T10:39:18.787Z,60.7361
2019-05-09T10:40:21.665Z,57.9834
2019-05-09T10:41:25.291Z,56.8787
2019-05-09T10:42:29.371Z,56.4758
2019-05-09T10:43:38.418Z,53.9551
2019-05-09T10:44:40.328Z,56.4758
2019-05-09T10:45:43.306Z,57.1533
2019-05-09T10:46:56.370Z,54.4067
2019-05-09T10:47:57.532Z,57.2998
2019-05-09T10:49:01.334Z,57.6782
2019-05-09T10:50:05.300Z,58.0505
2019-05-09T10:51:10.441Z,54.4006
2019-05-09T10:52:14.708Z,56.6895
2019-05-09T10:53:18.316Z,59.1736
2019-05-09T10:54:22.321Z,56.4331
2019-05-09T10:55:25.301Z,55.3040
2019-05-09T10:56:28.347Z,59.0881
2019-05-09T10:57:32.728Z,53.6438
2019-05-09T10:58:37.398Z,56.5247
2019-05-09T10:59:41.330Z,51.0132
2019-05-09T11:00:44.294Z,50.8118
2019-05-09T11:01:49.422Z,52.2156
2019-05-09T11:02:53.301Z,51.7395
2019-05-09T11:03:58.645Z,51.1169
2019-05-09T11:05:02.318Z,52.5208
2019-05-09T11:06:05.363Z,52.9968
2019-05-09T11:07:09.321Z,54.4250
2019-05-09T11:08:12.298Z,49.5605
2019-05-09T11:09:18.231Z,52.5940
2019-05-09T11:10:28.387Z,54.8523
2019-05-09T11:11:30.357Z,53.6743
2019-05-09T11:12:34.321Z,56.1096
2019-05-09T11:13:38.968Z,55.5603
2019-05-09T11:14:43.342Z,55.0842
2019-05-09T11:15:47.986Z,56.4453
2019-05-09T11:17:06.675Z,53.0457
2019-05-09T11:17:59.314Z,54.6082
2019-05-09T11:19:02.307Z,54.6326
2019-05-09T11:20:08.699Z,56.4026
2019-05-09T11:21:12.324Z,53.9001
2019-05-09T11:22:15.309Z,54.2297
2019-05-09T11:23:19.384Z,55.8533
2019-05-09T11:24:38.788Z,56.1829
2019-05-09T11:25:31.351Z,57.0923
2019-05-09T11:26:34.296Z,56.7139
2019-05-09T11:27:38.870Z,56.8420
2019-05-09T11:28:42.329Z,57.7820
2019-05-09T11:29:49.639Z,58.4167
2019-05-09T11:30:53.314Z,59.1797
2019-05-09T11:31:58.756Z,60.1685
2019-05-09T11:33:02.344Z,61.0229
2019-05-09T11:34:04.326Z,60.6628
2019-05-09T11:35:09.060Z,60.7361
2019-05-09T11:36:12.612Z,58.4534
2019-05-09T11:37:16.295Z,58.5266
2019-05-09T11:38:33.007Z,55.9448
2019-05-09T11:39:36.647Z,56.2256
2019-05-09T11:40:37.658Z,56.7017
2019-05-09T11:41:41.333Z,56.5735
2019-05-09T11:42:45.299Z,55.2368
2019-05-09T11:43:48.717Z,57.5256
2019-05-09T11:44:52.335Z,58.8806
2019-05-09T11:45:55.341Z,54.1260
2019-05-09T11:46:59.331Z,53.2959
2019-05-09T11:48:02.279Z,50.9583
2019-05-09T11:49:08.014Z,53.0701
2019-05-09T11:50:12.304Z,52.8442
2019-05-09T11:51:18.249Z,53.5461
2019-05-09T11:52:23.315Z,52.1179
2019-05-09T11:53:28.590Z,54.4006
2019-05-09T11:54:32.307Z,51.5625
2019-05-09T11:55:39.430Z,50.8850
2019-05-09T11:56:43.306Z,50.4089
2019-05-09T11:57:48.509Z,49.3286
2019-05-09T11:58:51.285Z,48.8708
2019-05-09T11:59:57.684Z,49.3713
2019-05-09T12:01:02.613Z,48.3887
2019-05-09T12:02:08.910Z,49.0173
2019-05-09T12:03:12.335Z,50.8545
2019-05-09T12:04:15.285Z,51.0803
2019-05-09T12:05:19.433Z,52.6184
2019-05-09T12:06:22.291Z,52.8442
2019-05-09T12:07:28.608Z,52.8687
2019-05-09T12:08:32.250Z,54.5593
2019-05-09T12:09:38.550Z,52.3132
2019-05-09T12:10:42.336Z,52.4170
2019-05-09T12:11:44.878Z,52.5940
2019-05-09T12:12:47.841Z,52.7954
2019-05-09T12:13:51.295Z,52.2644
2019-05-09T12:14:55.304Z,52.9724
2019-05-09T12:15:58.557Z,52.0386
2019-05-09T12:17:02.319Z,52.0386
2019-05-09T12:18:09.144Z,51.6357
2019-05-09T12:19:13.320Z,51.3367
2019-05-09T12:20:18.082Z,51.8372
2019-05-09T12:21:21.341Z,53.0457
2019-05-09T12:22:27.928Z,51.2329
2019-05-09T12:23:31.300Z,52.1667
2019-05-09T12:24:35.293Z,51.6602
2019-05-09T12:25:38.780Z,51.0803
2019-05-09T12:26:42.373Z,51.2024
2019-05-09T12:27:48.528Z,53.2471
2019-05-09T12:28:52.351Z,54.5593
2019-05-09T12:29:58.068Z,54.9866
2019-05-09T12:31:01.335Z,53.9795
2019-05-09T12:32:04.336Z,53.5767
2019-05-09T12:33:08.519Z,54.4067
2019-05-09T12:34:12.316Z,56.1218
2019-05-09T12:35:18.882Z,56.1218
2019-05-09T12:36:22.289Z,55.5420
2019-05-09T12:37:28.181Z,55.7434
2019-05-09T12:38:31.314Z,56.3538
2019-05-09T12:39:37.728Z,56.7261
2019-05-09T12:40:41.323Z,57.6660
2019-05-09T12:41:44.263Z,55.9448
2019-05-09T12:42:50.046Z,55.4688
2019-05-09T12:43:54.295Z,57.0862
2019-05-09T12:44:58.922Z,56.9824
2019-05-09T12:46:02.326Z,56.8848
2019-05-09T12:47:06.426Z,56.5796
2019-05-09T12:48:15.014Z,57.0862
2019-05-09T12:49:18.930Z,55.6702
2019-05-09T12:50:23.330Z,55.0659
2019-05-09T12:51:28.276Z,55.6702
2019-05-09T12:52:32.323Z,54.0527
2019-05-09T12:53:35.339Z,54.0527
2019-05-09T12:54:39.301Z,56.5552
2019-05-09T12:55:42.298Z,56.3538
2019-05-09T12:56:45.316Z,57.6660